Tropical Cyclones
[Index]
Main Index Home Page Stock Weather Photos Extreme Storms Discussion Storm News and Storm Chasing Reports Tropical Cyclones / Hurricanes / Typhoons Weather Data and Links Wild Fires / Bushfires Weather Observation Techniques Weather Picture Catalogue Tornado Pictures and Reports Stock Video Footage and DVDs for sale
Season 1997-1998 Tropical Cyclone TIFFANY Track Map
Season 1997-1998 Summaries (Operational Data): [AU] [SIO] [SPAC] [SH]
<<- Previous TC | 1997-1998 Season | Next TC ->>

click for intensity scale information  Lat/long Grid: Show Hide

 Date Labels: Show Hide

Operational Tropical Cyclone Data : JTWC Advisories

Name: TIFFANY
Number: 9815

24 Jan 1998 00:00 UTC to 31 Jan 1998 12:00 UTC

    date/time    lat    long     hPa   cat  kts
1998-01-24 00   16.6   123.5    1000         30          
1998-01-24 06   16.8   123.5    1002         30          
1998-01-24 12   16.9   122.3    1001         30          
1998-01-24 18   17.2   121.7    1000         30          
1998-01-25 00   17.1   121.0     999         30          
1998-01-25 06   17.3   120.5     990    1    40          
1998-01-25 12   17.8   119.7     985    2    50          
1998-01-25 18   17.9   119.2     985    2    50          
1998-01-26 00   18.0   118.9     980    2    55          
1998-01-26 06   18.4   118.6     975    2    55          
1998-01-26 12   18.5   118.2     960    3    75          
1998-01-26 18   18.5   117.9     950    3    80          
1998-01-27 00   18.7   117.4     930    4   100          
1998-01-27 06   19.0   116.7     940    4   100          
1998-01-27 12   19.2   115.9     940    4   100          
1998-01-27 18   19.2   114.9     940    4   100          
1998-01-28 00   19.2   114.0     955    4    90          
1998-01-28 06   19.4   112.9     955    4    90          
1998-01-28 12   19.5   112.0     955    4    90          
1998-01-28 18   19.5   111.1     955    4    90          
1998-01-29 00   19.5   110.3     970    3    75          
1998-01-29 06   19.6   109.5     980    2    60          
1998-01-29 12   19.7   109.0     990    1    45          
1998-01-29 18   19.6   108.6     990    1    45          
1998-01-30 00   19.5   108.1     992    1    45          
1998-01-30 06   19.5   107.4     994    1    40          
1998-01-30 12   19.3   106.9            1    35          
1998-01-31 00   19.4   106.2                 30          
1998-01-31 12   19.3   105.8                 25          
Winds are 10-min average.

Tropical cyclone tracks developed by Michael Bath using operational warnings and advisories and Google Maps.


[Australian Severe Weather index] [Copyright Notice] [Email Contacts] [Search This Site] [Privacy Policy]
Document: tropical_cyclone_tiffany.htm Updated: 28 May 2013